Time;durP1;ratioP1;P1;durP2;ratioP2;P2;SDS_P1;SDS_P2;PMS_P1;PMS_P2;Temp;Humidity;BMP_temperature;BMP_pressure;BME280_temperature;BME280_humidity;BME280_pressure;Samples;Min_cycle;Max_cycle;Signal;HPM_P1;HPM_P2
2022/05/23 00:00:25;;;;;;;12.73;7.55;;;;;;;17.86;64.11;100611.63;5097444;28;20435;-65
2022/05/23 00:02:50;;;;;;;11.90;7.22;;;;;;;17.85;64.20;100607.25;5097347;28;20101;-64
2022/05/23 00:05:16;;;;;;;11.57;7.47;;;;;;;17.82;63.90;100615.38;5097551;28;20036;-64
2022/05/23 00:07:45;;;;;;;10.52;7.28;;;;;;;17.77;64.60;100614.72;5097655;28;20363;-64
2022/05/23 00:10:12;;;;;;;10.05;6.75;;;;;;;17.74;65.60;100613.06;5097185;28;20040;-65
2022/05/23 00:12:39;;;;;;;12.68;6.70;;;;;;;17.67;67.06;100607.19;5097205;28;20055;-62
2022/05/23 00:15:06;;;;;;;12.50;7.00;;;;;;;17.70;65.01;100614.13;5097260;28;20078;-64
2022/05/23 00:17:32;;;;;;;10.18;6.53;;;;;;;17.70;66.15;100612.34;5097197;28;20047;-63
2022/05/23 00:19:57;;;;;;;11.68;6.60;;;;;;;17.64;65.56;100607.34;5097201;28;20020;-65
2022/05/23 00:22:22;;;;;;;10.20;6.93;;;;;;;17.56;66.92;100604.16;5097310;28;20383;-65
2022/05/23 00:24:47;;;;;;;12.57;6.47;;;;;;;17.52;66.40;100589.34;5097208;28;20266;-64
2022/05/23 00:27:16;;;;;;;9.82;6.45;;;;;;;17.57;65.96;100595.28;5096931;28;20274;-65
2022/05/23 00:29:42;;;;;;;10.85;6.35;;;;;;;17.51;67.18;100584.13;5097217;28;20039;-65
2022/05/23 00:37:36;;;;;;;9.55;6.30;;;;;;;17.39;66.82;100612.88;5096993;28;20462;-65
2022/05/23 00:40:02;;;;;;;11.43;6.97;;;;;;;17.24;66.70;100587.13;5096942;28;20023;-64
2022/05/23 00:45:15;;;;;;;13.30;7.45;;;;;;;17.31;67.89;100599.16;5097099;28;20442;-62
2022/05/23 00:47:42;;;;;;;12.57;7.50;;;;;;;17.22;67.89;100578.38;5096603;28;20040;-63
2022/05/23 00:50:09;;;;;;;12.32;6.78;;;;;;;17.25;68.01;100580.91;5096457;28;20363;-64
2022/05/23 00:52:39;;;;;;;10.90;7.18;;;;;;;17.23;68.36;100566.03;5096568;28;20107;-63
2022/05/23 00:55:17;;;;;;;12.63;7.80;;;;;;;17.19;67.90;100575.00;5096606;28;20031;-63
2022/05/23 00:57:48;;;;;;;11.90;7.53;;;;;;;17.12;69.48;100563.00;5096649;28;20089;-65
2022/05/23 01:00:14;;;;;;;12.50;7.70;;;;;;;17.18;68.93;100568.00;5096664;28;20032;-62
2022/05/23 01:02:41;;;;;;;11.80;7.68;;;;;;;17.21;69.05;100560.81;5096443;28;20114;-64
2022/05/23 01:05:08;;;;;;;14.45;7.90;;;;;;;17.11;69.32;100551.56;5096222;28;20036;-64
2022/05/23 01:07:34;;;;;;;10.93;8.18;;;;;;;17.12;70.88;100563.00;5095499;28;20435;-64
2022/05/23 01:09:59;;;;;;;15.18;8.20;;;;;;;17.17;70.65;100566.28;5096239;28;20042;-64
2022/05/23 01:12:27;;;;;;;11.88;7.57;;;;;;;17.24;70.17;100580.97;5096199;28;20141;-64
2022/05/23 01:14:58;;;;;;;12.63;7.90;;;;;;;17.28;70.14;100583.41;5095543;28;20035;-64
2022/05/23 01:17:26;;;;;;;13.50;8.52;;;;;;;17.20;70.82;100589.97;5096218;28;20054;-63
2022/05/23 01:19:52;;;;;;;12.30;7.68;;;;;;;17.21;71.06;100589.03;5095971;28;20028;-63
2022/05/23 01:22:55;;;;;;;10.93;7.75;;;;;;;17.23;70.47;100581.88;5096130;28;20040;-65
2022/05/23 01:25:26;;;;;;;11.35;7.63;;;;;;;17.11;69.47;100574.50;5095755;28;20031;-64
2022/05/23 01:27:53;;;;;;;13.18;8.10;;;;;;;17.08;71.56;100569.34;5095955;28;20062;-66
2022/05/23 01:30:19;;;;;;;13.15;8.07;;;;;;;17.02;70.52;100567.84;5095858;28;20032;-64
2022/05/23 01:32:44;;;;;;;12.60;8.07;;;;;;;16.99;69.89;100560.88;5095772;28;20051;-63
2022/05/23 01:35:10;;;;;;;12.20;8.38;;;;;;;16.99;69.84;100563.53;5095819;28;20397;-63
2022/05/23 01:37:36;;;;;;;12.82;7.95;;;;;;;17.01;70.44;100559.03;5095805;28;20050;-63
2022/05/23 01:40:04;;;;;;;12.30;7.75;;;;;;;16.97;70.53;100552.16;5095590;28;20032;-63
2022/05/23 01:42:29;;;;;;;12.32;8.27;;;;;;;16.88;71.39;100544.66;5095450;28;20496;-64
2022/05/23 01:44:54;;;;;;;12.10;8.35;;;;;;;16.84;72.45;100550.13;5095689;28;20028;-64
2022/05/23 01:47:21;;;;;;;12.15;7.80;;;;;;;16.79;71.92;100555.66;5095637;28;20339;-64
2022/05/23 01:49:46;;;;;;;12.20;8.45;;;;;;;16.72;72.48;100551.53;5095706;28;20586;-63
2022/05/23 01:52:12;;;;;;;16.90;8.63;;;;;;;16.68;72.47;100549.94;5095368;28;20064;-63
2022/05/23 01:54:38;;;;;;;14.27;8.15;;;;;;;16.69;72.09;100559.59;5095520;28;20050;-64
2022/05/23 01:57:06;;;;;;;11.40;7.88;;;;;;;16.58;72.38;100564.47;5095549;28;20036;-63
2022/05/23 02:02:15;;;;;;;11.57;8.25;;;;;;;16.40;73.02;100547.59;5095268;28;20370;-64
2022/05/23 02:04:42;;;;;;;13.05;8.13;;;;;;;16.36;74.77;100549.50;5095116;28;20032;-63
2022/05/23 02:07:08;;;;;;;11.95;8.23;;;;;;;16.40;73.36;100546.75;5095098;28;20409;-63
2022/05/23 02:09:34;;;;;;;12.05;8.52;;;;;;;16.34;72.66;100539.94;5095431;28;20032;-64
2022/05/23 02:12:00;;;;;;;13.30;8.50;;;;;;;16.31;74.75;100534.78;5095226;28;20039;-62
2022/05/23 02:14:26;;;;;;;14.63;9.20;;;;;;;16.34;74.26;100534.66;5095291;28;20416;-63
2022/05/23 02:16:51;;;;;;;13.80;8.70;;;;;;;16.35;73.04;100542.50;5077420;28;20028;-64
2022/05/23 02:19:17;;;;;;;12.75;8.60;;;;;;;16.43;73.21;100543.97;5094853;28;20060;-63
2022/05/23 02:21:42;;;;;;;9.88;8.52;;;;;;;16.38;74.50;100543.31;5095038;28;20371;-64
2022/05/23 02:24:08;;;;;;;13.52;8.77;;;;;;;16.41;73.79;100536.13;5094856;28;20067;-63
2022/05/23 02:26:33;;;;;;;14.80;8.88;;;;;;;16.36;74.12;100540.72;5095019;28;20073;-63
2022/05/23 02:29:00;;;;;;;12.27;8.98;;;;;;;16.33;75.42;100533.78;5095196;28;20032;-64
2022/05/23 02:31:26;;;;;;;13.30;9.60;;;;;;;16.24;75.28;100525.41;5094993;28;20363;-64
2022/05/23 02:33:51;;;;;;;15.82;9.18;;;;;;;16.26;74.09;100519.16;5094776;28;20048;-63
2022/05/23 02:36:16;;;;;;;15.52;9.10;;;;;;;16.25;75.60;100520.06;5094860;28;20392;-64
2022/05/23 02:38:42;;;;;;;14.38;8.98;;;;;;;16.29;75.06;100526.91;5094805;28;20037;-63
2022/05/23 02:41:07;;;;;;;14.35;9.40;;;;;;;16.27;74.97;100518.22;5095010;28;20038;-64
2022/05/23 02:43:32;;;;;;;13.68;9.45;;;;;;;16.35;74.67;100510.81;5095026;28;20036;-64
2022/05/23 02:45:58;;;;;;;12.30;9.05;;;;;;;16.39;73.85;100506.28;5095247;28;20025;-63
2022/05/23 02:48:23;;;;;;;12.88;9.07;;;;;;;16.39;74.24;100500.13;5094994;28;20424;-63
2022/05/23 02:50:49;;;;;;;12.52;8.73;;;;;;;16.34;74.98;100489.75;5095080;28;20059;-63
2022/05/23 02:53:14;;;;;;;15.02;9.30;;;;;;;16.26;73.90;100492.75;5094868;28;20450;-63
2022/05/23 02:55:39;;;;;;;12.50;8.52;;;;;;;16.22;74.77;100482.38;5094771;28;20040;-64
2022/05/23 02:58:07;;;;;;;12.35;8.95;;;;;;;16.14;74.54;100473.91;5094724;28;20031;-64
2022/05/23 03:00:33;;;;;;;11.73;8.98;;;;;;;16.03;75.62;100471.72;5092189;28;20036;-64
2022/05/23 03:03:01;;;;;;;12.40;9.23;;;;;;;15.91;75.46;100453.75;5094910;28;20063;-65
2022/05/23 03:05:31;;;;;;;15.75;9.48;;;;;;;15.84;77.08;100453.16;5094972;28;20036;-62
2022/05/23 03:07:57;;;;;;;16.52;9.48;;;;;;;15.85;76.47;100440.81;5094996;28;20118;-64
2022/05/23 03:10:23;;;;;;;14.57;9.70;;;;;;;15.88;76.42;100431.00;5094476;28;20362;-64
2022/05/23 03:12:48;;;;;;;19.75;9.90;;;;;;;15.80;76.79;100421.66;5094747;28;20028;-64
2022/05/23 03:15:14;;;;;;;15.90;9.75;;;;;;;15.90;77.30;100412.47;5094769;28;20051;-64
2022/05/23 03:17:39;;;;;;;13.88;10.02;;;;;;;15.93;77.71;100417.63;5095454;28;20036;-63
2022/05/23 03:20:06;;;;;;;14.20;9.65;;;;;;;15.92;76.31;100416.75;5094760;28;20032;-64
2022/05/23 03:27:59;;;;;;;14.25;9.82;;;;;;;15.89;76.92;100387.84;5094620;28;20489;-66
2022/05/23 03:30:25;;;;;;;14.63;9.50;;;;;;;15.79;77.16;100399.69;5095795;28;20031;-63
2022/05/23 03:32:51;;;;;;;15.60;9.98;;;;;;;15.76;77.90;100393.72;5098014;28;20028;-63
2022/05/23 03:35:17;;;;;;;12.75;9.45;;;;;;;15.72;79.02;100395.63;5097982;28;20367;-63
2022/05/23 03:37:42;;;;;;;15.40;10.25;;;;;;;15.74;78.28;100390.28;5098153;28;20031;-63
2022/05/23 03:40:08;;;;;;;15.07;9.88;;;;;;;15.65;79.33;100381.81;5097979;28;20484;-64
2022/05/23 03:42:34;;;;;;;17.55;9.80;;;;;;;15.73;78.19;100378.88;5098013;28;20032;-64
2022/05/23 03:44:59;;;;;;;16.05;9.65;;;;;;;15.70;79.81;100376.34;5097785;28;20039;-62
2022/05/23 03:47:25;;;;;;;16.48;9.68;;;;;;;15.75;79.45;100370.91;5098154;28;20035;-64
2022/05/23 03:49:50;;;;;;;15.07;9.65;;;;;;;15.75;79.74;100370.91;5097863;28;20110;-63
2022/05/23 03:52:15;;;;;;;15.80;10.43;;;;;;;15.77;80.21;100363.75;5097858;28;20028;-63
2022/05/23 03:54:41;;;;;;;17.67;10.60;;;;;;;15.81;79.10;100365.34;5097841;28;20043;-64
2022/05/23 03:57:06;;;;;;;15.07;10.25;;;;;;;15.76;79.01;100359.41;5097727;28;20528;-62
2022/05/23 03:59:32;;;;;;;14.07;9.93;;;;;;;15.73;79.93;100365.69;5097684;28;20036;-63
2022/05/23 04:01:57;;;;;;;12.95;10.05;;;;;;;15.77;79.76;100354.06;5097352;28;20032;-63
2022/05/23 04:04:28;;;;;;;15.98;9.85;;;;;;;15.69;79.03;100350.91;5097396;28;20443;-63
2022/05/23 04:06:59;;;;;;;13.55;9.57;;;;;;;15.77;79.98;100358.47;5097530;28;20123;-63
2022/05/23 04:09:25;;;;;;;15.68;9.80;;;;;;;15.78;79.63;100357.53;5097336;28;20040;-63
2022/05/23 04:11:50;;;;;;;16.75;9.27;;;;;;;15.73;79.50;100352.50;5097297;28;20036;-64
2022/05/23 04:14:15;;;;;;;14.33;10.30;;;;;;;15.68;80.29;100341.25;5097322;28;20039;-62
2022/05/23 04:16:44;;;;;;;13.45;10.32;;;;;;;15.61;79.72;100321.34;5097385;28;20278;-64
2022/05/23 04:19:10;;;;;;;16.85;9.98;;;;;;;15.70;80.24;100330.66;5097468;28;20036;-64
2022/05/23 04:21:35;;;;;;;15.63;10.50;;;;;;;15.71;80.52;100325.31;5097106;28;20062;-63
2022/05/23 04:24:00;;;;;;;15.13;10.07;;;;;;;15.78;80.16;100326.75;5097229;28;20089;-64
2022/05/23 04:26:26;;;;;;;14.48;9.93;;;;;;;15.83;80.29;100323.91;5097172;28;20039;-63
2022/05/23 04:28:51;;;;;;;14.75;10.40;;;;;;;15.89;79.96;100327.16;5097059;28;20040;-63
2022/05/23 04:31:17;;;;;;;14.48;10.70;;;;;;;15.96;79.30;100318.03;5096998;28;20024;-63
2022/05/23 04:36:26;;;;;;;13.45;9.75;;;;;;;16.10;78.89;100314.81;5096837;28;20079;-65
2022/05/23 04:38:51;;;;;;;13.47;9.93;;;;;;;16.15;78.40;100310.16;5096867;28;20028;-64
2022/05/23 04:41:17;;;;;;;14.57;9.52;;;;;;;16.20;78.22;100313.47;5095436;28;20331;-62
2022/05/23 04:43:43;;;;;;;14.88;10.02;;;;;;;16.29;77.88;100307.75;5096352;28;20035;-63
2022/05/23 04:46:08;;;;;;;11.07;9.00;;;;;;;16.38;77.89;100305.63;5096647;28;20343;-63
2022/05/23 04:51:17;;;;;;;14.27;9.50;;;;;;;16.39;77.66;100296.78;5096852;28;20257;-63
2022/05/23 04:53:42;;;;;;;14.85;8.88;;;;;;;16.50;77.48;100298.00;5096369;28;20048;-64
2022/05/23 04:56:08;;;;;;;13.38;9.00;;;;;;;16.54;77.45;100293.41;5096617;28;20085;-63
2022/05/23 04:58:33;;;;;;;15.57;9.23;;;;;;;16.53;77.37;100294.34;5096565;28;20510;-64
2022/05/23 05:01:00;;;;;;;12.52;9.10;;;;;;;16.55;77.15;100289.84;5096606;28;20273;-64
2022/05/23 05:03:25;;;;;;;13.45;9.38;;;;;;;16.54;76.98;100273.16;5102387;28;20048;-62
2022/05/23 05:05:51;;;;;;;13.73;9.23;;;;;;;16.68;77.11;100291.88;5106000;28;20106;-62
2022/05/23 05:08:16;;;;;;;12.25;8.98;;;;;;;16.67;76.72;100298.09;5106662;28;20056;-65
2022/05/23 05:10:42;;;;;;;12.65;8.85;;;;;;;16.77;76.42;100289.75;5104735;28;20327;-62
2022/05/23 05:13:07;;;;;;;11.48;9.32;;;;;;;16.81;76.46;100291.28;5106133;28;20031;-63
2022/05/23 05:15:34;;;;;;;13.55;8.93;;;;;;;16.92;76.83;100278.44;5106224;28;20032;-65
2022/05/23 05:17:59;;;;;;;13.20;8.65;;;;;;;16.99;76.06;100270.09;5107197;28;20115;-63
2022/05/23 05:20:24;;;;;;;11.57;8.98;;;;;;;17.07;75.91;100251.25;5107604;28;20119;-62
2022/05/23 05:22:51;;;;;;;12.43;9.18;;;;;;;17.16;75.74;100244.63;5116246;28;20092;-62
2022/05/23 05:25:18;;;;;;;13.98;8.68;;;;;;;17.20;76.53;100248.84;5116204;28;20418;-64
2022/05/23 05:27:43;;;;;;;15.13;9.07;;;;;;;17.25;76.29;100245.03;5116155;28;20027;-62
2022/05/23 05:30:13;;;;;;;12.40;9.68;;;;;;;17.28;75.15;100241.38;5116188;28;20328;-62
2022/05/23 05:32:44;;;;;;;14.27;9.32;;;;;;;17.35;75.19;100237.47;5116023;28;20051;-62
2022/05/23 05:35:37;;;;;;;13.50;9.00;;;;;;;17.40;74.82;100232.81;5116087;28;20058;-62
2022/05/23 05:38:16;;;;;;;12.35;9.18;;;;;;;17.38;73.56;100229.38;5116201;28;20031;-62
2022/05/23 05:40:46;;;;;;;15.23;9.73;;;;;;;17.40;74.01;100225.75;5116004;28;20031;-61
2022/05/23 05:43:27;;;;;;;13.27;9.93;;;;;;;17.44;74.11;100223.78;5115650;28;20028;-61
2022/05/23 05:45:58;;;;;;;13.75;10.07;;;;;;;17.52;73.83;100220.72;5116104;28;20515;-63
2022/05/23 05:48:24;;;;;;;14.48;9.95;;;;;;;17.54;73.34;100217.09;5115579;28;20085;-62
2022/05/23 05:50:50;;;;;;;13.77;9.93;;;;;;;17.62;73.09;100208.75;5115884;28;20088;-61
2022/05/23 05:53:30;;;;;;;11.35;9.23;;;;;;;17.73;73.06;100201.97;5115370;28;20114;-62
2022/05/23 05:55:56;;;;;;;11.65;9.63;;;;;;;17.76;72.30;100200.13;5115399;28;20031;-62
2022/05/23 05:58:21;;;;;;;12.98;10.07;;;;;;;17.72;72.11;100196.78;5115707;28;20087;-61
2022/05/23 06:00:47;;;;;;;12.77;9.25;;;;;;;17.81;71.50;100200.72;5097591;28;20039;-62
2022/05/23 06:03:12;;;;;;;14.45;9.55;;;;;;;17.79;71.47;100203.47;5115729;28;20099;-62
2022/05/23 06:11:24;;;;;;;14.23;9.50;;;;;;;17.92;70.66;100198.34;5102076;28;20460;-64
2022/05/23 06:13:55;;;;;;;13.65;10.00;;;;;;;17.99;70.50;100200.59;5115302;28;20059;-61
2022/05/23 06:16:21;;;;;;;12.45;9.68;;;;;;;18.16;70.33;100202.34;5114771;28;20094;-62
2022/05/23 06:18:47;;;;;;;13.38;9.50;;;;;;;18.27;70.11;100188.47;5114825;28;20062;-61
2022/05/23 06:21:12;;;;;;;12.35;9.48;;;;;;;18.36;70.41;100190.59;5115010;28;20103;-62
2022/05/23 06:23:41;;;;;;;12.45;8.98;;;;;;;18.51;69.81;100183.63;5114725;28;20059;-62
2022/05/23 06:26:07;;;;;;;11.10;8.63;;;;;;;18.58;69.36;100177.00;5113456;28;20027;-62
2022/05/23 06:28:34;;;;;;;11.45;8.98;;;;;;;18.63;68.47;100177.63;5113470;28;20031;-62
2022/05/23 06:30:59;;;;;;;13.23;8.93;;;;;;;18.64;68.67;100171.41;5113553;28;20328;-62
2022/05/23 06:33:25;;;;;;;12.93;8.60;;;;;;;18.69;68.72;100164.91;5113326;28;20093;-62
2022/05/23 06:35:50;;;;;;;10.82;8.23;;;;;;;18.72;68.18;100163.84;5113500;28;20032;-62
2022/05/23 06:38:16;;;;;;;12.63;8.97;;;;;;;18.68;68.81;100152.59;5113191;28;20028;-62
2022/05/23 06:40:42;;;;;;;13.95;8.95;;;;;;;18.72;67.78;100169.16;5113577;28;20276;-62
2022/05/23 06:43:07;;;;;;;9.48;7.82;;;;;;;18.69;67.43;100164.03;5113270;28;20036;-61
2022/05/23 06:45:32;;;;;;;13.13;9.40;;;;;;;18.61;67.95;100153.03;5113376;28;20035;-62
2022/05/23 06:47:57;;;;;;;10.40;8.45;;;;;;;18.77;67.83;100167.09;5113416;28;20401;-62
2022/05/23 06:50:23;;;;;;;11.23;8.38;;;;;;;18.91;68.38;100164.50;5113584;28;20038;-62
2022/05/23 06:52:49;;;;;;;13.35;9.32;;;;;;;19.06;67.47;100162.72;5113384;28;20088;-60
2022/05/23 06:55:14;;;;;;;11.23;9.25;;;;;;;19.05;66.95;100161.88;5113240;28;20035;-62
2022/05/23 06:57:39;;;;;;;11.18;9.35;;;;;;;19.18;66.24;100164.66;5113522;28;20038;-61
2022/05/23 07:00:09;;;;;;;11.27;8.52;;;;;;;19.26;66.24;100170.34;5114165;28;20028;-62
2022/05/23 07:02:35;;;;;;;12.20;8.45;;;;;;;19.28;65.85;100164.97;5114947;28;20059;-62
2022/05/23 07:13:13;;;;;;;13.68;8.13;;;;;;;19.37;65.36;100167.94;5118660;28;20051;-62
2022/05/23 07:15:46;;;;;;;11.57;7.53;;;;;;;19.42;64.63;100164.97;5118209;28;20031;-61
2022/05/23 07:18:12;;;;;;;10.20;7.30;;;;;;;19.42;64.27;100157.00;5118376;28;20047;-64
2022/05/23 07:20:39;;;;;;;11.10;7.38;;;;;;;19.33;65.78;100165.53;5118448;28;20421;-64
2022/05/23 07:23:04;;;;;;;10.65;6.97;;;;;;;19.26;65.06;100158.88;5115698;28;20036;-65
2022/05/23 07:25:29;;;;;;;10.45;7.07;;;;;;;19.17;65.46;100159.44;5118332;28;20049;-59
2022/05/23 07:27:55;;;;;;;11.80;7.13;;;;;;;19.17;66.80;100157.66;5118229;28;20035;-64
2022/05/23 07:30:21;;;;;;;10.00;7.22;;;;;;;19.25;66.83;100167.78;5117795;28;20293;-63
2022/05/23 07:32:46;;;;;;;10.57;7.07;;;;;;;19.28;66.76;100164.97;5118207;28;20133;-64
2022/05/23 07:35:12;;;;;;;11.77;7.53;;;;;;;19.30;66.25;100173.69;5115218;28;20055;-63
2022/05/23 07:37:37;;;;;;;10.13;6.85;;;;;;;19.34;66.47;100167.25;5117834;28;20099;-63
2022/05/23 07:40:03;;;;;;;9.10;6.93;;;;;;;19.41;66.31;100171.22;5118396;28;20062;-63
2022/05/23 07:42:29;;;;;;;9.85;6.13;;;;;;;19.59;66.19;100166.63;5117912;28;20042;-63
2022/05/23 07:44:55;;;;;;;10.23;6.63;;;;;;;19.70;64.29;100154.44;5117731;28;20106;-63
2022/05/23 07:47:20;;;;;;;9.18;6.57;;;;;;;19.89;64.35;100145.31;5118037;28;20473;-63
2022/05/23 07:49:47;;;;;;;9.43;6.22;;;;;;;19.99;63.33;100144.63;5117846;28;20059;-63
2022/05/23 07:52:12;;;;;;;10.02;6.13;;;;;;;20.03;62.91;100146.13;5114706;28;20434;-64
2022/05/23 08:00:37;;;;;;;10.15;6.00;;;;;;;20.90;61.11;100144.91;5075022;28;20220;-64
2022/05/23 08:03:19;;;;;;;12.63;6.28;;;;;;;21.18;59.99;100142.06;5074919;28;20037;-64
2022/05/23 08:05:45;;;;;;;9.80;6.05;;;;;;;21.23;58.74;100140.00;5102356;28;20115;-64
2022/05/23 08:08:10;;;;;;;10.05;6.03;;;;;;;21.35;58.36;100133.81;5117269;28;20092;-63
2022/05/23 08:10:36;;;;;;;9.15;6.00;;;;;;;21.31;58.38;100123.47;5117422;28;20031;-63
2022/05/23 08:13:08;;;;;;;9.85;5.53;;;;;;;21.31;58.77;100120.81;5116893;28;20439;-63
2022/05/23 08:15:37;;;;;;;11.75;5.90;;;;;;;21.29;58.80;100107.66;5117433;28;20039;-63
2022/05/23 08:18:03;;;;;;;8.48;5.38;;;;;;;21.29;58.21;100112.13;5116794;28;20431;-63
2022/05/23 08:20:28;;;;;;;9.57;5.43;;;;;;;21.06;58.79;100073.75;5117039;28;20031;-63
2022/05/23 08:22:55;;;;;;;7.90;4.93;;;;;;;21.17;59.12;100103.13;5117183;28;20019;-63
2022/05/23 08:25:21;;;;;;;8.05;5.63;;;;;;;20.98;59.52;100103.53;5117181;28;20133;-62
2022/05/23 08:27:46;;;;;;;11.30;5.88;;;;;;;20.77;59.22;100081.94;5116775;28;20027;-63
2022/05/23 08:30:12;;;;;;;8.87;5.63;;;;;;;20.84;59.25;100096.50;5116897;28;20039;-58
2022/05/23 08:32:38;;;;;;;10.90;5.40;;;;;;;20.93;59.44;100099.50;5117205;28;20588;-62
2022/05/23 08:35:03;;;;;;;8.70;5.10;;;;;;;20.92;59.75;100093.31;5117010;28;20051;-60
2022/05/23 08:37:28;;;;;;;9.23;5.50;;;;;;;20.86;58.97;100083.09;5113923;28;20113;-60
2022/05/23 08:39:54;;;;;;;9.82;5.30;;;;;;;20.70;59.88;100056.69;5117288;28;20111;-64
2022/05/23 08:42:32;;;;;;;11.70;5.15;;;;;;;20.84;60.55;100064.56;5117226;28;20366;-64
2022/05/23 08:45:20;;;;;;;11.55;5.22;;;;;;;20.96;61.23;100054.91;5117137;28;20115;-65
2022/05/23 08:48:02;;;;;;;6.70;4.88;;;;;;;20.97;61.99;100061.91;5116680;28;20355;-66
2022/05/23 08:50:59;;;;;;;8.32;5.57;;;;;;;21.11;62.92;100063.66;5116903;28;20036;-65
2022/05/23 08:53:34;;;;;;;9.50;5.60;;;;;;;21.14;61.22;100060.75;5074878;28;20130;-65
2022/05/23 08:56:04;;;;;;;9.23;5.60;;;;;;;21.15;59.77;100060.66;5117589;28;20028;-65
2022/05/23 08:58:48;;;;;;;8.77;5.05;;;;;;;21.26;61.07;100049.31;5082342;28;20446;-65
2022/05/23 09:01:18;;;;;;;9.10;5.40;;;;;;;21.26;59.87;100043.13;5116784;28;20035;-61
2022/05/23 09:03:52;;;;;;;7.50;5.23;;;;;;;21.42;59.66;100052.59;5116816;28;20060;-63
2022/05/23 09:06:23;;;;;;;11.02;5.53;;;;;;;21.54;59.21;100041.06;5116505;28;20019;-62
2022/05/23 09:08:52;;;;;;;9.48;5.10;;;;;;;21.77;58.34;100034.09;5116243;28;20421;-63
2022/05/23 09:11:20;;;;;;;6.38;4.93;;;;;;;21.63;58.47;100036.91;5116555;28;20031;-63
2022/05/23 09:13:45;;;;;;;8.30;4.90;;;;;;;21.55;58.36;100023.28;5116592;28;20024;-63
2022/05/23 09:16:13;;;;;;;11.13;5.30;;;;;;;21.39;57.91;100018.19;5116680;28;20084;-59
2022/05/23 09:18:51;;;;;;;11.00;5.18;;;;;;;21.30;59.27;100026.00;5116127;28;20469;-66
2022/05/23 09:21:16;;;;;;;8.95;5.30;;;;;;;21.19;62.21;100016.94;5116244;28;20123;-67
2022/05/23 09:23:49;;;;;;;9.15;5.32;;;;;;;21.17;60.18;100023.28;5116360;28;20111;-66
2022/05/23 09:26:20;;;;;;;9.60;5.50;;;;;;;21.17;58.96;100024.16;5116524;28;20088;-60
2022/05/23 09:28:45;;;;;;;10.45;5.00;;;;;;;21.19;59.41;100011.63;5115645;28;20176;-60
2022/05/23 09:31:59;;;;;;;8.00;5.38;;;;;;;21.24;60.38;100013.13;5116094;28;20059;-58
2022/05/23 09:34:37;;;;;;;8.10;5.40;;;;;;;20.92;60.73;100010.03;5013369;28;20054;-63
2022/05/23 09:37:14;;;;;;;9.07;5.50;;;;;;;20.77;61.12;99993.31;5112036;28;20076;-63
2022/05/23 09:39:53;;;;;;;8.35;5.07;;;;;;;21.01;61.27;99983.59;5116169;28;20046;-59
2022/05/23 09:48:13;;;;;;;8.38;5.40;;;;;;;21.93;58.06;99961.03;5095927;28;20054;-57
2022/05/23 09:50:52;;;;;;;8.23;5.72;;;;;;;21.76;59.03;99971.13;5101381;28;20056;-63
2022/05/23 09:53:28;;;;;;;8.60;5.88;;;;;;;21.83;59.41;99968.84;5067790;28;20371;-58
2022/05/23 09:55:53;;;;;;;11.23;6.07;;;;;;;22.12;58.48;99948.91;5095255;28;20524;-65
2022/05/23 09:58:35;;;;;;;11.18;6.22;;;;;;;22.55;58.69;99940.28;5095208;28;20063;-65
2022/05/23 10:01:04;;;;;;;;;;;;;;;22.84;57.66;99946.06;5095513;28;20028;-66
2022/05/23 10:03:32;;;;;;;8.32;6.10;;;;;;;22.68;56.15;99934.88;5095404;28;19908;-67
2022/05/23 10:06:12;;;;;;;10.40;6.00;;;;;;;22.67;57.00;99933.16;5095116;28;20081;-66
2022/05/23 10:08:46;;;;;;;10.85;5.72;;;;;;;22.76;56.54;99925.28;5094940;28;20042;-66
2022/05/23 10:11:17;;;;;;;9.27;5.95;;;;;;;22.84;57.26;99922.06;5094868;28;20028;-65
2022/05/23 10:13:49;;;;;;;11.00;6.13;;;;;;;22.92;56.22;99922.28;5095603;28;20032;-67
2022/05/23 10:16:17;;;;;;;;;;;;;;;23.22;56.26;99911.81;5095402;28;20027;-66
2022/05/23 10:18:52;;;;;;;9.50;6.10;;;;;;;23.33;55.47;99920.81;5095268;28;20288;-67
2022/05/23 10:21:31;;;;;;;11.52;5.05;;;;;;;23.41;54.50;99927.19;5094840;28;20028;-65
2022/05/23 10:24:03;;;;;;;10.73;5.70;;;;;;;23.33;52.88;99935.00;5095108;28;20059;-66
2022/05/23 10:26:33;;;;;;;10.25;4.95;;;;;;;23.33;52.89;99927.00;5094559;28;20111;-67
2022/05/23 10:29:09;;;;;;;7.45;5.07;;;;;;;23.54;54.21;99932.44;5077405;28;20359;-65
2022/05/23 10:32:06;;;;;;;9.80;5.30;;;;;;;23.66;53.12;99934.09;5094568;28;20035;-65
2022/05/23 10:34:48;;;;;;;8.85;5.55;;;;;;;23.62;52.25;99921.13;5094785;28;20094;-65
2022/05/23 10:37:28;;;;;;;10.13;5.47;;;;;;;23.65;51.69;99911.03;5094988;28;20115;-65
2022/05/23 10:42:51;;;;;;;8.00;5.18;;;;;;;23.85;52.32;99906.72;5099250;28;20055;-65
2022/05/23 10:45:33;;;;;;;9.55;6.38;;;;;;;23.94;51.85;99882.72;5080787;28;20081;-65
2022/05/23 10:48:26;;;;;;;7.38;5.75;;;;;;;24.00;52.02;99877.84;5099013;28;20035;-66
2022/05/23 10:51:11;;;;;;;8.52;5.38;;;;;;;24.14;49.77;99869.50;5098666;28;20107;-66
2022/05/23 10:53:53;;;;;;;7.50;5.95;;;;;;;24.32;50.88;99872.47;5098729;28;20031;-66
2022/05/23 10:56:25;;;;;;;8.98;5.55;;;;;;;24.38;48.12;99863.91;5098791;28;20397;-66
2022/05/23 10:58:59;;;;;;;8.85;5.05;;;;;;;24.46;48.93;99864.09;5098772;28;20064;-66
2022/05/23 11:01:35;;;;;;;6.05;5.18;;;;;;;24.51;47.94;99861.88;5098597;28;20028;-65
2022/05/23 11:04:00;;;;;;;8.02;5.78;;;;;;;24.48;47.43;99856.78;5098491;28;20089;-66
2022/05/23 11:06:45;;;;;;;10.50;4.70;;;;;;;24.45;47.53;99846.34;5098800;28;20024;-65
2022/05/23 11:09:35;;;;;;;6.18;4.35;;;;;;;24.24;47.92;99825.81;5098221;28;20096;-66
2022/05/23 11:12:18;;;;;;;6.63;4.65;;;;;;;24.44;49.04;99797.34;5098469;28;20334;-65
2022/05/23 11:15:25;;;;;;;6.78;4.35;;;;;;;24.60;49.98;99804.88;5098131;28;20035;-66
2022/05/23 11:18:24;;;;;;;8.90;4.85;;;;;;;24.77;48.57;99798.03;5063908;28;20048;-65
2022/05/23 11:20:54;;;;;;;7.45;4.60;;;;;;;24.78;47.13;99794.38;5098428;28;20355;-65
2022/05/23 11:23:38;;;;;;;8.32;4.00;;;;;;;24.89;46.35;99779.06;5098378;28;20036;-65
2022/05/23 11:26:13;;;;;;;6.93;3.40;;;;;;;24.99;46.59;99779.09;5098240;28;20515;-66
2022/05/23 11:34:23;;;;;;;6.60;3.30;;;;;;;25.21;43.02;99761.94;5097969;28;20470;-65
2022/05/23 11:37:00;;;;;;;4.93;3.25;;;;;;;25.33;43.33;99758.97;5098266;28;20038;-67
2022/05/23 11:39:46;;;;;;;8.90;3.28;;;;;;;25.74;44.25;99756.16;5097839;28;20032;-65
2022/05/23 11:42:14;;;;;;;5.50;3.97;;;;;;;25.92;42.48;99752.59;5098016;28;20093;-66
2022/05/23 11:44:42;;;;;;;7.03;2.90;;;;;;;25.87;44.13;99752.19;5097744;28;20020;-65
2022/05/23 11:47:24;;;;;;;5.65;3.15;;;;;;;25.66;44.13;99741.63;5097311;28;20032;-66
2022/05/23 11:50:17;;;;;;;4.72;3.40;;;;;;;25.44;44.67;99739.25;5097743;28;20059;-65
2022/05/23 11:52:50;;;;;;;5.82;2.97;;;;;;;25.25;43.17;99737.44;5097239;28;20032;-66
2022/05/23 11:55:54;;;;;;;4.68;2.80;;;;;;;25.33;44.15;99736.69;5097193;28;20043;-66
2022/05/23 11:58:24;;;;;;;5.05;2.60;;;;;;;25.52;42.56;99725.97;5097164;28;20036;-65
2022/05/23 12:01:10;;;;;;;4.50;3.10;;;;;;;25.59;44.26;99723.56;5097671;28;20443;-66
2022/05/23 12:03:47;;;;;;;5.57;3.17;;;;;;;25.40;42.86;99713.72;5096736;28;20485;-65
2022/05/23 12:06:29;;;;;;;4.88;2.58;;;;;;;25.22;42.30;99716.28;5097217;28;20405;-66
2022/05/23 12:08:57;;;;;;;;;;;;;;;25.37;43.68;99721.19;5097675;28;20119;-66
2022/05/23 12:11:22;;;;;;;3.72;2.47;;;;;;;24.92;43.14;99716.38;5097230;28;19912;-65
2022/05/23 12:13:51;;;;;;;5.13;2.70;;;;;;;24.67;42.71;99711.53;5097216;28;20031;-65
2022/05/23 12:16:27;;;;;;;5.20;2.55;;;;;;;24.42;43.16;99724.41;5096949;28;20032;-66
2022/05/23 12:19:11;;;;;;;5.00;2.75;;;;;;;24.24;43.28;99724.22;5096851;28;20313;-65
2022/05/23 12:21:36;;;;;;;4.93;2.10;;;;;;;24.05;43.31;99713.44;5097021;28;20116;-67
2022/05/23 12:24:10;;;;;;;4.17;2.40;;;;;;;24.03;44.58;99726.09;5097174;28;20099;-66
2022/05/23 12:26:36;;;;;;;3.80;2.08;;;;;;;23.99;43.76;99716.63;5096377;28;20039;-65
2022/05/23 12:29:20;;;;;;;5.38;2.40;;;;;;;24.03;44.91;99712.72;5079056;28;20372;-66